createdAt,value
2022-09-28T00:01:25.034Z,9.20
2022-09-28T00:04:00.329Z,7.80
2022-09-28T00:06:30.685Z,10.40
2022-09-28T00:09:01.345Z,8.80
2022-09-28T00:11:29.691Z,10.70
2022-09-28T00:14:02.120Z,9.80
2022-09-28T00:16:34.638Z,11.10
2022-09-28T00:19:05.210Z,8.40
2022-09-28T00:21:36.623Z,9.10
2022-09-28T00:24:17.058Z,9.10
2022-09-28T00:26:50.041Z,8.30
2022-09-28T00:29:37.062Z,9.60
2022-09-28T00:32:11.299Z,9.40
2022-09-28T00:34:43.386Z,10.50
2022-09-28T00:37:12.749Z,6.60
2022-09-28T00:39:42.500Z,9.30
2022-09-28T00:42:19.929Z,7.60
2022-09-28T00:44:59.231Z,10.60
2022-09-28T00:47:49.567Z,8.90
2022-09-28T00:50:30.227Z,9.60
2022-09-28T00:53:16.227Z,8.60
2022-09-28T00:55:54.891Z,10.00
2022-09-28T00:58:30.350Z,9.50
2022-09-28T01:01:00.507Z,10.30
2022-09-28T01:03:29.084Z,9.00
2022-09-28T01:06:01.979Z,8.60
2022-09-28T01:08:32.711Z,8.70
2022-09-28T01:11:01.122Z,8.40
2022-09-28T01:13:33.310Z,10.00
2022-09-28T01:16:20.726Z,9.10
2022-09-28T01:18:51.334Z,7.30
2022-09-28T01:21:24.746Z,8.50
2022-09-28T01:24:14.740Z,9.30
2022-09-28T01:26:49.962Z,9.50
2022-09-28T01:29:30.129Z,7.80
2022-09-28T01:32:33.167Z,9.00
2022-09-28T01:35:20.979Z,7.70
2022-09-28T01:38:29.151Z,9.60
2022-09-28T01:41:00.470Z,7.50
2022-09-28T01:43:30.473Z,7.20
2022-09-28T01:46:19.739Z,8.00
2022-09-28T01:51:43.242Z,7.90
2022-09-28T01:54:26.801Z,6.80
2022-09-28T01:57:03.061Z,8.70
2022-09-28T01:59:35.593Z,8.80
2022-09-28T02:02:12.411Z,6.70
2022-09-28T02:04:47.774Z,7.60
2022-09-28T02:07:26.275Z,11.70
2022-09-28T02:10:01.074Z,10.30
2022-09-28T02:12:46.712Z,6.70
2022-09-28T02:15:17.730Z,8.90
2022-09-28T02:17:48.216Z,5.40
2022-09-28T02:20:18.641Z,5.80
2022-09-28T02:22:53.416Z,6.30
2022-09-28T02:25:45.643Z,7.00
2022-09-28T02:28:13.955Z,5.30
2022-09-28T02:30:44.898Z,5.50
2022-09-28T02:33:28.042Z,7.50
2022-09-28T02:35:57.383Z,8.60
2022-09-28T02:38:26.722Z,9.00
2022-09-28T02:41:04.269Z,8.30
2022-09-28T02:43:50.793Z,6.90
2022-09-28T02:46:36.490Z,7.10
2022-09-28T02:49:22.326Z,6.10
2022-09-28T02:52:14.008Z,5.10
2022-09-28T02:55:04.335Z,5.60
2022-09-28T02:57:49.233Z,6.00
2022-09-28T03:00:22.988Z,4.80
2022-09-28T03:03:00.573Z,5.20
2022-09-28T03:05:54.380Z,4.10
2022-09-28T03:08:26.064Z,4.60
2022-09-28T03:11:17.854Z,5.10
2022-09-28T03:13:47.763Z,5.00
2022-09-28T03:16:18.593Z,4.30
2022-09-28T03:18:48.838Z,7.20
2022-09-28T03:21:16.998Z,7.90
2022-09-28T03:23:47.028Z,6.10
2022-09-28T03:26:17.699Z,7.50
2022-09-28T03:28:46.644Z,5.70
2022-09-28T03:31:18.895Z,5.50
2022-09-28T03:33:47.796Z,6.20
2022-09-28T03:36:16.167Z,5.00
2022-09-28T03:38:44.636Z,6.90
2022-09-28T03:41:12.214Z,5.90
2022-09-28T03:43:42.142Z,7.40
2022-09-28T03:46:10.147Z,6.40
2022-09-28T03:48:43.983Z,6.50
2022-09-28T03:51:14.168Z,5.90
2022-09-28T03:53:42.107Z,5.70
2022-09-28T03:56:15.302Z,5.00
2022-09-28T03:58:43.426Z,5.20
2022-09-28T04:01:16.783Z,5.00
2022-09-28T04:03:47.081Z,6.80
2022-09-28T04:06:15.043Z,5.80
2022-09-28T04:08:43.129Z,5.30
2022-09-28T04:11:10.982Z,6.50
2022-09-28T04:13:38.969Z,5.80
2022-09-28T04:16:11.467Z,5.10
2022-09-28T04:18:39.901Z,5.60
2022-09-28T04:21:21.281Z,7.30
2022-09-28T04:23:58.985Z,7.40
2022-09-28T04:26:28.005Z,7.80
2022-09-28T04:29:13.774Z,6.30
2022-09-28T04:31:52.046Z,7.70
2022-09-28T04:34:23.447Z,7.90
2022-09-28T04:36:51.499Z,6.80
2022-09-28T04:39:20.074Z,6.20
2022-09-28T04:41:51.001Z,5.40
2022-09-28T04:44:18.633Z,6.20
2022-09-28T04:46:48.280Z,6.30
2022-09-28T04:49:31.142Z,5.40
2022-09-28T04:52:26.864Z,7.70
2022-09-28T04:54:55.002Z,5.00
2022-09-28T04:57:24.188Z,4.00
2022-09-28T04:59:51.569Z,8.70
2022-09-28T05:02:19.986Z,6.20
2022-09-28T05:05:25.682Z,6.30
2022-09-28T05:08:09.675Z,7.80
2022-09-28T05:10:40.107Z,7.50
2022-09-28T05:13:08.793Z,7.50
2022-09-28T05:15:38.066Z,9.50
2022-09-28T05:18:06.445Z,9.90
2022-09-28T05:20:48.513Z,9.00
2022-09-28T05:23:16.639Z,7.70
2022-09-28T05:25:45.461Z,8.00
2022-09-28T05:28:25.004Z,6.30
2022-09-28T05:31:11.416Z,5.50
2022-09-28T05:34:06.190Z,5.80
2022-09-28T05:36:34.164Z,7.20
2022-09-28T05:39:03.676Z,6.60
2022-09-28T05:41:31.337Z,5.90
2022-09-28T05:44:00.540Z,4.70
2022-09-28T05:46:29.603Z,5.30
2022-09-28T05:49:00.011Z,5.90
2022-09-28T05:51:27.926Z,6.00
2022-09-28T05:53:56.063Z,7.10
2022-09-28T05:56:25.447Z,5.60
2022-09-28T05:58:53.744Z,6.70
2022-09-28T06:01:22.920Z,6.10
2022-09-28T06:03:50.628Z,5.90
2022-09-28T06:06:18.618Z,7.80
2022-09-28T06:08:48.124Z,5.30
2022-09-28T06:11:33.798Z,6.40
2022-09-28T06:14:07.340Z,7.90
2022-09-28T06:16:38.202Z,6.10
2022-09-28T06:19:08.762Z,6.50
2022-09-28T06:21:54.546Z,6.10
2022-09-28T06:24:22.232Z,6.40
2022-09-28T06:26:49.415Z,5.40
2022-09-28T06:29:19.646Z,5.60
2022-09-28T06:31:47.975Z,5.00
2022-09-28T06:34:15.589Z,6.70
2022-09-28T06:36:44.584Z,7.90
2022-09-28T06:39:12.254Z,4.30
2022-09-28T06:41:41.552Z,5.60
2022-09-28T06:44:17.145Z,4.70
2022-09-28T06:46:52.046Z,4.10
2022-09-28T06:49:55.765Z,5.20
2022-09-28T06:52:50.245Z,4.20
2022-09-28T06:55:42.579Z,4.30
2022-09-28T06:58:12.208Z,5.00
2022-09-28T07:00:40.881Z,4.30
2022-09-28T07:03:11.872Z,4.80
2022-09-28T07:05:59.770Z,5.20
2022-09-28T07:09:28.342Z,4.20
2022-09-28T07:12:13.076Z,5.70
2022-09-28T07:15:01.557Z,3.90
2022-09-28T07:17:29.419Z,4.10
2022-09-28T07:20:10.448Z,4.00
2022-09-28T07:22:44.713Z,4.40
2022-09-28T07:25:18.005Z,4.40
2022-09-28T07:28:02.423Z,4.90
2022-09-28T07:30:48.732Z,6.00
2022-09-28T07:33:40.010Z,7.20
2022-09-28T07:36:34.561Z,6.40
2022-09-28T07:39:02.947Z,5.30
2022-09-28T07:41:33.683Z,6.70
2022-09-28T07:44:06.530Z,5.60
2022-09-28T07:46:36.907Z,6.30
2022-09-28T07:49:23.486Z,6.70
2022-09-28T07:52:00.151Z,6.20
2022-09-28T07:54:27.458Z,5.70
2022-09-28T07:57:23.874Z,6.70
2022-09-28T08:00:10.784Z,6.00
2022-09-28T08:02:46.049Z,5.20
2022-09-28T08:05:17.628Z,6.60
2022-09-28T08:07:45.057Z,6.50
2022-09-28T08:10:12.749Z,5.30
2022-09-28T08:13:03.229Z,4.60
2022-09-28T08:15:38.236Z,4.00
2022-09-28T08:18:28.998Z,4.60
2022-09-28T08:21:15.233Z,4.20
2022-09-28T08:23:43.482Z,4.20
2022-09-28T08:26:15.369Z,3.80
2022-09-28T08:28:44.989Z,3.90
2022-09-28T08:31:41.521Z,4.00
2022-09-28T08:34:13.942Z,3.60
2022-09-28T08:36:59.878Z,4.30
2022-09-28T08:39:41.823Z,3.70
2022-09-28T08:42:35.327Z,4.10
2022-09-28T08:45:25.676Z,3.20
2022-09-28T08:49:23.827Z,3.00
2022-09-28T08:52:18.367Z,3.80
2022-09-28T08:55:04.289Z,3.30
2022-09-28T08:57:56.179Z,1.60
2022-09-28T09:00:39.505Z,2.00
2022-09-28T09:03:14.182Z,3.40
2022-09-28T09:06:22.491Z,2.50
2022-09-28T09:09:05.368Z,1.80
2022-09-28T09:12:13.977Z,2.70
2022-09-28T09:14:53.532Z,2.50
2022-09-28T09:17:43.689Z,2.00
2022-09-28T09:20:45.091Z,2.50
2022-09-28T09:23:17.607Z,2.30
2022-09-28T09:25:54.402Z,2.20
2022-09-28T09:28:44.499Z,2.20
2022-09-28T09:31:21.954Z,2.40
2022-09-28T09:34:20.511Z,3.00
2022-09-28T09:37:16.499Z,3.00
2022-09-28T09:39:50.930Z,2.40
2022-09-28T09:42:58.346Z,4.10
2022-09-28T09:45:54.213Z,2.10
2022-09-28T09:49:03.447Z,2.70
2022-09-28T09:51:59.214Z,2.60
2022-09-28T09:54:50.434Z,3.10
2022-09-28T09:57:41.550Z,3.70
2022-09-28T10:00:27.519Z,3.40
2022-09-28T10:03:03.589Z,2.60
2022-09-28T10:05:36.858Z,3.30
2022-09-28T10:08:14.871Z,3.80
2022-09-28T10:10:54.976Z,2.40
2022-09-28T10:13:22.996Z,1.70
2022-09-28T10:15:51.040Z,1.70
2022-09-28T10:18:23.049Z,1.90
2022-09-28T10:21:16.726Z,1.90
2022-09-28T10:24:02.255Z,2.60
2022-09-28T10:26:38.861Z,2.10
2022-09-28T10:29:17.416Z,2.50
2022-09-28T10:31:50.288Z,1.70
2022-09-28T10:34:30.021Z,1.50
2022-09-28T10:37:06.365Z,2.10
2022-09-28T10:39:52.965Z,3.00
2022-09-28T10:42:27.198Z,1.80
2022-09-28T10:45:24.140Z,1.20
2022-09-28T10:47:51.502Z,1.10
2022-09-28T10:50:27.572Z,1.40
2022-09-28T10:53:19.922Z,1.20
2022-09-28T10:56:21.841Z,1.30
2022-09-28T10:58:53.223Z,1.60
2022-09-28T11:01:32.611Z,1.60
2022-09-28T11:04:07.576Z,1.90
2022-09-28T11:06:39.840Z,2.00
2022-09-28T11:09:29.845Z,1.90
2022-09-28T11:12:02.786Z,1.40
2022-09-28T11:14:42.165Z,2.40
2022-09-28T11:17:32.421Z,1.90
2022-09-28T11:20:21.495Z,1.60
2022-09-28T11:22:57.791Z,1.50
2022-09-28T11:25:29.079Z,1.40
2022-09-28T11:30:51.737Z,1.50
2022-09-28T11:33:28.712Z,1.00
2022-09-28T11:36:18.909Z,1.30
2022-09-28T11:39:02.242Z,1.70
2022-09-28T11:41:54.455Z,1.40
2022-09-28T11:44:31.010Z,0.90
2022-09-28T11:47:28.022Z,1.60
2022-09-28T11:50:29.281Z,1.30
2022-09-28T11:53:24.571Z,2.00
2022-09-28T11:58:46.764Z,1.20
2022-09-28T12:01:48.676Z,1.40
2022-09-28T12:04:46.058Z,1.20
2022-09-28T12:07:35.551Z,1.40
2022-09-28T12:10:14.421Z,1.10
2022-09-28T12:13:40.119Z,1.30
2022-09-28T12:17:03.672Z,1.10
2022-09-28T12:19:31.900Z,1.20
2022-09-28T12:22:32.869Z,1.40
2022-09-28T12:25:03.593Z,1.20
2022-09-28T12:28:01.856Z,0.80
2022-09-28T12:30:35.094Z,0.80
2022-09-28T12:33:08.913Z,1.80
2022-09-28T12:35:44.057Z,0.90
2022-09-28T12:39:08.462Z,1.40
2022-09-28T12:41:46.823Z,0.90
2022-09-28T12:44:42.201Z,0.60
2022-09-28T12:47:41.721Z,0.90
2022-09-28T12:50:38.788Z,0.90
2022-09-28T12:53:41.210Z,0.70
2022-09-28T12:56:15.690Z,1.20
2022-09-28T12:59:12.379Z,0.90
2022-09-28T13:01:58.901Z,1.60
2022-09-28T13:04:48.634Z,1.30
2022-09-28T13:07:27.618Z,1.30
2022-09-28T13:09:58.094Z,1.00
2022-09-28T13:12:46.423Z,0.60
2022-09-28T13:15:16.605Z,0.30
2022-09-28T13:18:14.579Z,0.50
2022-09-28T13:20:49.767Z,1.40
2022-09-28T13:24:00.723Z,0.50
2022-09-28T13:26:40.183Z,0.50
2022-09-28T13:29:14.102Z,2.40
2022-09-28T13:31:59.566Z,0.60
2022-09-28T13:34:33.122Z,1.50
2022-09-28T13:37:25.333Z,0.80
2022-09-28T13:39:52.658Z,0.70
2022-09-28T13:42:24.318Z,1.10
2022-09-28T13:45:20.967Z,1.10
2022-09-28T13:48:10.403Z,0.80
2022-09-28T13:50:56.010Z,0.60
2022-09-28T13:53:44.763Z,0.50
2022-09-28T13:56:37.619Z,1.80
2022-09-28T13:59:14.178Z,1.30
2022-09-28T14:01:55.430Z,0.80
2022-09-28T14:04:43.906Z,0.90
2022-09-28T14:07:19.747Z,2.00
2022-09-28T14:10:07.501Z,0.90
2022-09-28T14:12:34.655Z,1.10
2022-09-28T14:15:06.615Z,1.20
2022-09-28T14:17:52.560Z,1.30
2022-09-28T14:20:22.773Z,1.10
2022-09-28T14:22:57.519Z,3.00
2022-09-28T14:25:27.942Z,0.90
2022-09-28T14:28:27.154Z,1.00
2022-09-28T14:30:59.034Z,1.30
2022-09-28T14:33:28.436Z,0.80
2022-09-28T14:36:07.492Z,1.40
2022-09-28T14:39:06.991Z,1.30
2022-09-28T14:41:41.417Z,0.90
2022-09-28T14:44:14.037Z,0.80
2022-09-28T14:46:46.151Z,0.80
2022-09-28T14:49:19.760Z,1.10
2022-09-28T14:51:52.870Z,1.10
2022-09-28T14:54:26.087Z,1.10
2022-09-28T14:56:53.470Z,1.20
2022-09-28T14:59:36.302Z,1.30
2022-09-28T15:02:14.597Z,1.50
2022-09-28T15:05:08.321Z,1.50
2022-09-28T15:07:51.424Z,1.70
2022-09-28T15:10:27.513Z,1.40
2022-09-28T15:12:56.459Z,2.00
2022-09-28T15:15:36.778Z,2.70
2022-09-28T15:18:42.138Z,1.30
2022-09-28T15:21:13.304Z,0.80
2022-09-28T15:23:43.513Z,1.90
2022-09-28T15:26:21.838Z,2.80
2022-09-28T15:28:49.038Z,1.70
2022-09-28T15:31:23.934Z,2.00
2022-09-28T15:34:09.705Z,1.90
2022-09-28T15:36:42.009Z,1.70
2022-09-28T15:39:39.791Z,1.80
2022-09-28T15:42:06.976Z,2.00
2022-09-28T15:44:36.668Z,2.00
2022-09-28T15:47:24.788Z,3.00
2022-09-28T15:50:00.980Z,1.90
2022-09-28T15:52:46.723Z,1.30
2022-09-28T15:55:28.889Z,1.90
2022-09-28T15:58:10.484Z,2.40
2022-09-28T16:00:39.373Z,2.90
2022-09-28T16:03:06.714Z,1.40
2022-09-28T16:05:46.351Z,2.70
2022-09-28T16:08:24.225Z,4.50
2022-09-28T16:11:26.096Z,4.20
2022-09-28T16:14:08.396Z,4.30
2022-09-28T16:16:46.359Z,3.80
2022-09-28T16:19:29.249Z,3.80
2022-09-28T16:21:59.073Z,6.30
2022-09-28T16:24:27.931Z,18.30
2022-09-28T16:26:56.467Z,55.60
2022-09-28T16:29:40.035Z,25.90
2022-09-28T16:32:25.994Z,25.00
2022-09-28T16:35:11.244Z,24.30
2022-09-28T16:37:43.181Z,23.40
2022-09-28T16:40:12.997Z,9.50
2022-09-28T16:42:48.681Z,5.80
2022-09-28T16:45:19.695Z,4.70
2022-09-28T16:47:52.329Z,4.50
2022-09-28T16:50:20.991Z,8.20
2022-09-28T16:53:35.508Z,17.70
2022-09-28T16:56:04.352Z,16.40
2022-09-28T16:58:31.592Z,11.00
2022-09-28T17:01:00.007Z,6.70
2022-09-28T17:03:28.473Z,6.00
2022-09-28T17:05:56.299Z,5.50
2022-09-28T17:08:25.115Z,6.10
2022-09-28T17:11:22.575Z,6.90
2022-09-28T17:13:48.250Z,6.50
2022-09-28T17:16:18.108Z,6.40
2022-09-28T17:21:16.066Z,8.40
2022-09-28T17:23:44.751Z,5.10
2022-09-28T17:26:33.054Z,6.70
2022-09-28T17:29:01.605Z,9.10
2022-09-28T17:31:29.505Z,7.30
2022-09-28T17:33:56.733Z,5.70
2022-09-28T17:36:25.416Z,6.40
2022-09-28T17:38:52.868Z,7.00
2022-09-28T17:41:20.982Z,8.20
2022-09-28T17:43:49.204Z,7.30
2022-09-28T17:46:27.832Z,7.80
2022-09-28T17:48:58.934Z,7.50
2022-09-28T17:51:32.023Z,5.60
2022-09-28T17:54:00.658Z,7.10
2022-09-28T17:56:32.061Z,8.10
2022-09-28T17:59:05.403Z,5.80
2022-09-28T18:01:34.124Z,6.80
2022-09-28T18:04:04.504Z,6.40
2022-09-28T18:06:36.595Z,7.00
2022-09-28T18:09:05.041Z,7.90
2022-09-28T18:11:36.569Z,7.00
2022-09-28T18:14:06.728Z,6.40
2022-09-28T18:16:36.552Z,5.90
2022-09-28T18:19:03.652Z,5.50
2022-09-28T18:21:33.555Z,6.30
2022-09-28T18:24:01.211Z,6.30
2022-09-28T18:26:28.872Z,5.40
2022-09-28T18:28:55.991Z,7.50
2022-09-28T18:31:23.528Z,5.50
2022-09-28T18:33:50.631Z,4.70
2022-09-28T18:36:17.684Z,5.70
2022-09-28T18:38:44.827Z,7.10
2022-09-28T18:41:15.114Z,5.80
2022-09-28T18:43:48.297Z,5.30
2022-09-28T18:46:17.660Z,4.40
2022-09-28T18:48:46.949Z,4.10
2022-09-28T18:51:14.079Z,4.80
2022-09-28T18:53:41.247Z,5.50
2022-09-28T18:56:11.733Z,5.50
2022-09-28T18:58:40.687Z,4.50
2022-09-28T19:01:32.162Z,5.10
2022-09-28T19:04:04.728Z,4.80
2022-09-28T19:06:33.855Z,6.40
2022-09-28T19:09:01.001Z,6.30
2022-09-28T19:11:28.824Z,5.70
2022-09-28T19:13:56.334Z,8.60
2022-09-28T19:16:28.779Z,4.60
2022-09-28T19:18:57.998Z,5.30
2022-09-28T19:21:26.688Z,5.80
2022-09-28T19:23:54.917Z,4.90
2022-09-28T19:26:25.146Z,6.80
2022-09-28T19:28:52.844Z,4.60
2022-09-28T19:31:21.226Z,4.00
2022-09-28T19:33:49.496Z,5.20
2022-09-28T19:36:23.202Z,7.50
2022-09-28T19:38:51.854Z,5.30
2022-09-28T19:41:43.779Z,5.50
2022-09-28T19:44:19.457Z,6.00
2022-09-28T19:46:46.864Z,6.50
2022-09-28T19:49:21.606Z,5.20
2022-09-28T19:52:11.572Z,6.80
2022-09-28T19:54:37.968Z,5.80
2022-09-28T19:57:07.089Z,4.50
2022-09-28T19:59:36.209Z,5.50
2022-09-28T20:02:07.566Z,4.70
2022-09-28T20:04:34.970Z,5.10
2022-09-28T20:07:03.442Z,4.60
2022-09-28T20:09:32.453Z,4.50
2022-09-28T20:11:59.820Z,5.00
2022-09-28T20:14:32.874Z,6.40
2022-09-28T20:17:03.668Z,4.20
2022-09-28T20:19:30.933Z,4.50
2022-09-28T20:22:02.313Z,6.20
2022-09-28T20:24:30.911Z,3.30
2022-09-28T20:26:58.564Z,5.90
2022-09-28T20:29:26.385Z,5.10
2022-09-28T20:31:53.700Z,6.00
2022-09-28T20:34:21.645Z,5.20
2022-09-28T20:36:49.207Z,5.50
2022-09-28T20:39:17.415Z,4.30
2022-09-28T20:41:46.778Z,5.80
2022-09-28T20:44:14.037Z,4.70
2022-09-28T20:46:43.528Z,5.30
2022-09-28T20:49:11.111Z,8.40
2022-09-28T20:51:38.351Z,4.30
2022-09-28T20:54:05.850Z,4.70
2022-09-28T20:56:37.800Z,4.70
2022-09-28T20:59:11.103Z,4.40
2022-09-28T21:01:39.499Z,7.00
2022-09-28T21:04:08.887Z,5.50
2022-09-28T21:06:39.474Z,6.10
2022-09-28T21:09:08.239Z,5.30
2022-09-28T21:11:36.438Z,5.10
2022-09-28T21:14:06.375Z,5.30
2022-09-28T21:19:03.109Z,4.50
2022-09-28T21:21:31.594Z,4.30
2022-09-28T21:23:59.172Z,2.90
2022-09-28T21:26:30.911Z,4.50
2022-09-28T21:29:00.898Z,3.90
2022-09-28T21:34:06.859Z,5.70
2022-09-28T21:36:34.395Z,3.30
2022-09-28T21:39:01.632Z,3.30
2022-09-28T21:41:29.473Z,3.20
2022-09-28T21:43:57.449Z,2.90
2022-09-28T21:46:25.175Z,3.10
2022-09-28T21:48:55.828Z,6.00
2022-09-28T21:51:24.210Z,4.50
2022-09-28T21:53:52.295Z,3.90
2022-09-28T21:56:20.387Z,6.40
2022-09-28T21:58:47.921Z,5.00
2022-09-28T22:01:25.084Z,4.00
2022-09-28T22:03:55.051Z,4.60
2022-09-28T22:06:24.582Z,5.40
2022-09-28T22:08:52.556Z,5.00
2022-09-28T22:11:23.611Z,4.00
2022-09-28T22:13:54.272Z,4.90
2022-09-28T22:16:26.147Z,3.90
2022-09-28T22:18:53.989Z,4.60
2022-09-28T22:21:33.113Z,7.20
2022-09-28T22:24:04.457Z,5.60
2022-09-28T22:26:33.636Z,4.70
2022-09-28T22:29:04.596Z,5.50
2022-09-28T22:31:35.439Z,7.30
2022-09-28T22:34:04.525Z,5.50
2022-09-28T22:36:33.345Z,6.40
2022-09-28T22:39:01.505Z,6.00
2022-09-28T22:41:29.708Z,4.20
2022-09-28T22:43:58.875Z,4.80
2022-09-28T22:46:28.876Z,3.70
2022-09-28T22:48:58.523Z,4.50
2022-09-28T22:51:27.982Z,5.60
2022-09-28T22:53:56.427Z,6.90
2022-09-28T22:56:24.881Z,5.20
2022-09-28T22:58:52.573Z,4.30
2022-09-28T23:01:23.196Z,5.60
2022-09-28T23:03:53.327Z,5.20
2022-09-28T23:06:24.233Z,4.00
2022-09-28T23:08:53.524Z,6.00
2022-09-28T23:13:54.124Z,4.90
2022-09-28T23:16:24.467Z,3.40
2022-09-28T23:18:55.221Z,3.90
2022-09-28T23:21:25.749Z,3.60
2022-09-28T23:23:56.004Z,4.00
2022-09-28T23:26:27.030Z,4.10
2022-09-28T23:28:55.545Z,5.00
2022-09-28T23:31:26.778Z,4.90
2022-09-28T23:34:04.990Z,6.70
2022-09-28T23:36:33.584Z,5.40
2022-09-28T23:39:02.828Z,5.20
2022-09-28T23:41:30.517Z,4.40
2022-09-28T23:43:59.484Z,4.40
2022-09-28T23:46:28.451Z,4.30
2022-09-28T23:48:58.016Z,8.20
2022-09-28T23:51:26.104Z,8.30
2022-09-28T23:53:55.115Z,7.80
2022-09-28T23:56:24.296Z,8.00
2022-09-28T23:58:52.585Z,8.00
